sensor_id;sensor_type;location;lat;lon;timestamp;P1;durP1;ratioP1;P2;durP2;ratioP2
49722;SDS011;43484;43.608;1.458;2023-11-21T00:02:18;14.93;;;2.47;;
49722;SDS011;43484;43.608;1.458;2023-11-21T00:04:44;21.67;;;2.88;;
49722;SDS011;43484;43.608;1.458;2023-11-21T00:07:12;19.13;;;2.50;;
49722;SDS011;43484;43.608;1.458;2023-11-21T00:09:38;15.45;;;2.45;;
49722;SDS011;43484;43.608;1.458;2023-11-21T00:12:05;15.93;;;2.65;;
49722;SDS011;43484;43.608;1.458;2023-11-21T00:14:32;9.90;;;2.58;;
49722;SDS011;43484;43.608;1.458;2023-11-21T00:16:59;19.50;;;2.67;;
49722;SDS011;43484;43.608;1.458;2023-11-21T00:19:26;26.10;;;2.90;;
49722;SDS011;43484;43.608;1.458;2023-11-21T00:21:52;14.02;;;3.15;;
49722;SDS011;43484;43.608;1.458;2023-11-21T00:24:19;18.08;;;3.08;;
49722;SDS011;43484;43.608;1.458;2023-11-21T00:26:45;19.75;;;2.38;;
49722;SDS011;43484;43.608;1.458;2023-11-21T00:29:15;16.35;;;2.58;;
49722;SDS011;43484;43.608;1.458;2023-11-21T00:31:44;18.33;;;2.25;;
49722;SDS011;43484;43.608;1.458;2023-11-21T00:34:12;21.02;;;2.58;;
49722;SDS011;43484;43.608;1.458;2023-11-21T00:36:39;17.25;;;2.67;;
49722;SDS011;43484;43.608;1.458;2023-11-21T00:39:06;13.50;;;2.90;;
49722;SDS011;43484;43.608;1.458;2023-11-21T00:41:33;18.75;;;2.85;;
49722;SDS011;43484;43.608;1.458;2023-11-21T00:44:03;19.92;;;2.65;;
49722;SDS011;43484;43.608;1.458;2023-11-21T00:46:29;25.45;;;2.80;;
49722;SDS011;43484;43.608;1.458;2023-11-21T00:48:56;15.80;;;1.95;;
49722;SDS011;43484;43.608;1.458;2023-11-21T00:51:23;23.65;;;2.95;;
49722;SDS011;43484;43.608;1.458;2023-11-21T00:53:50;17.23;;;2.70;;
49722;SDS011;43484;43.608;1.458;2023-11-21T00:56:18;21.25;;;3.13;;
49722;SDS011;43484;43.608;1.458;2023-11-21T00:58:44;16.92;;;3.35;;
49722;SDS011;43484;43.608;1.458;2023-11-21T01:01:16;15.07;;;2.78;;
49722;SDS011;43484;43.608;1.458;2023-11-21T01:03:43;24.95;;;2.55;;
49722;SDS011;43484;43.608;1.458;2023-11-21T01:06:12;11.98;;;1.67;;
49722;SDS011;43484;43.608;1.458;2023-11-21T01:08:41;13.15;;;1.63;;
49722;SDS011;43484;43.608;1.458;2023-11-21T01:11:08;19.15;;;4.10;;
49722;SDS011;43484;43.608;1.458;2023-11-21T01:13:36;16.02;;;1.80;;
49722;SDS011;43484;43.608;1.458;2023-11-21T01:16:03;17.20;;;2.10;;
49722;SDS011;43484;43.608;1.458;2023-11-21T01:18:30;17.20;;;2.22;;
49722;SDS011;43484;43.608;1.458;2023-11-21T01:20:57;11.73;;;2.38;;
49722;SDS011;43484;43.608;1.458;2023-11-21T01:23:23;14.50;;;1.27;;
49722;SDS011;43484;43.608;1.458;2023-11-21T01:25:50;8.65;;;1.20;;
49722;SDS011;43484;43.608;1.458;2023-11-21T01:28:18;12.82;;;1.67;;
49722;SDS011;43484;43.608;1.458;2023-11-21T01:30:46;17.20;;;2.10;;
49722;SDS011;43484;43.608;1.458;2023-11-21T01:33:13;15.45;;;1.52;;
49722;SDS011;43484;43.608;1.458;2023-11-21T01:35:42;15.15;;;1.33;;
49722;SDS011;43484;43.608;1.458;2023-11-21T01:38:09;6.72;;;1.02;;
49722;SDS011;43484;43.608;1.458;2023-11-21T01:40:35;13.68;;;1.70;;
49722;SDS011;43484;43.608;1.458;2023-11-21T01:43:02;15.00;;;1.60;;
49722;SDS011;43484;43.608;1.458;2023-11-21T01:45:32;14.82;;;2.10;;
49722;SDS011;43484;43.608;1.458;2023-11-21T01:48:00;15.13;;;1.85;;
49722;SDS011;43484;43.608;1.458;2023-11-21T01:50:29;14.82;;;1.42;;
49722;SDS011;43484;43.608;1.458;2023-11-21T01:52:56;7.43;;;1.23;;
49722;SDS011;43484;43.608;1.458;2023-11-21T01:55:24;16.73;;;1.55;;
49722;SDS011;43484;43.608;1.458;2023-11-21T01:57:54;12.13;;;1.50;;
49722;SDS011;43484;43.608;1.458;2023-11-21T02:00:22;15.18;;;1.35;;
49722;SDS011;43484;43.608;1.458;2023-11-21T02:02:50;5.38;;;1.20;;
49722;SDS011;43484;43.608;1.458;2023-11-21T02:05:18;8.15;;;1.20;;
49722;SDS011;43484;43.608;1.458;2023-11-21T02:07:45;13.20;;;1.17;;
49722;SDS011;43484;43.608;1.458;2023-11-21T02:10:17;13.93;;;1.38;;
49722;SDS011;43484;43.608;1.458;2023-11-21T02:12:49;12.07;;;1.42;;
49722;SDS011;43484;43.608;1.458;2023-11-21T02:15:16;14.25;;;1.38;;
49722;SDS011;43484;43.608;1.458;2023-11-21T02:17:47;14.85;;;1.63;;
49722;SDS011;43484;43.608;1.458;2023-11-21T02:20:19;14.10;;;1.73;;
49722;SDS011;43484;43.608;1.458;2023-11-21T02:22:50;15.05;;;1.23;;
49722;SDS011;43484;43.608;1.458;2023-11-21T02:25:31;13.43;;;1.48;;
49722;SDS011;43484;43.608;1.458;2023-11-21T02:28:00;10.02;;;1.85;;
49722;SDS011;43484;43.608;1.458;2023-11-21T02:30:28;12.40;;;1.55;;
49722;SDS011;43484;43.608;1.458;2023-11-21T02:32:57;11.18;;;1.92;;
49722;SDS011;43484;43.608;1.458;2023-11-21T02:35:24;9.75;;;0.80;;
49722;SDS011;43484;43.608;1.458;2023-11-21T02:37:54;17.58;;;1.33;;
49722;SDS011;43484;43.608;1.458;2023-11-21T02:40:21;11.10;;;1.50;;
49722;SDS011;43484;43.608;1.458;2023-11-21T02:42:48;13.65;;;2.22;;
49722;SDS011;43484;43.608;1.458;2023-11-21T02:45:18;8.75;;;1.60;;
49722;SDS011;43484;43.608;1.458;2023-11-21T02:47:47;11.25;;;1.45;;
49722;SDS011;43484;43.608;1.458;2023-11-21T02:50:15;6.80;;;1.02;;
49722;SDS011;43484;43.608;1.458;2023-11-21T02:52:45;10.80;;;0.93;;
49722;SDS011;43484;43.608;1.458;2023-11-21T02:55:12;10.93;;;1.05;;
49722;SDS011;43484;43.608;1.458;2023-11-21T02:57:38;8.13;;;1.05;;
49722;SDS011;43484;43.608;1.458;2023-11-21T03:00:05;11.27;;;1.45;;
49722;SDS011;43484;43.608;1.458;2023-11-21T03:02:42;5.82;;;0.75;;
49722;SDS011;43484;43.608;1.458;2023-11-21T03:05:10;5.70;;;0.70;;
49722;SDS011;43484;43.608;1.458;2023-11-21T03:07:37;6.40;;;1.27;;
49722;SDS011;43484;43.608;1.458;2023-11-21T03:10:05;10.93;;;1.00;;
49722;SDS011;43484;43.608;1.458;2023-11-21T03:12:36;11.82;;;1.10;;
49722;SDS011;43484;43.608;1.458;2023-11-21T03:15:05;8.10;;;1.02;;
49722;SDS011;43484;43.608;1.458;2023-11-21T03:17:32;7.30;;;0.90;;
49722;SDS011;43484;43.608;1.458;2023-11-21T03:20:03;7.22;;;1.08;;
49722;SDS011;43484;43.608;1.458;2023-11-21T03:22:31;11.68;;;0.95;;
49722;SDS011;43484;43.608;1.458;2023-11-21T03:24:57;8.60;;;0.90;;
49722;SDS011;43484;43.608;1.458;2023-11-21T03:27:25;10.25;;;0.90;;
49722;SDS011;43484;43.608;1.458;2023-11-21T03:29:52;10.70;;;1.02;;
49722;SDS011;43484;43.608;1.458;2023-11-21T03:32:18;9.18;;;1.38;;
49722;SDS011;43484;43.608;1.458;2023-11-21T03:34:55;9.10;;;1.42;;
49722;SDS011;43484;43.608;1.458;2023-11-21T03:37:24;7.30;;;1.75;;
49722;SDS011;43484;43.608;1.458;2023-11-21T03:39:51;9.75;;;1.17;;
49722;SDS011;43484;43.608;1.458;2023-11-21T03:42:18;9.98;;;1.65;;
49722;SDS011;43484;43.608;1.458;2023-11-21T03:44:44;9.70;;;1.15;;
49722;SDS011;43484;43.608;1.458;2023-11-21T03:47:11;12.20;;;1.60;;
49722;SDS011;43484;43.608;1.458;2023-11-21T03:49:38;9.52;;;1.35;;
49722;SDS011;43484;43.608;1.458;2023-11-21T03:52:05;9.13;;;1.00;;
49722;SDS011;43484;43.608;1.458;2023-11-21T03:54:32;7.68;;;0.93;;
49722;SDS011;43484;43.608;1.458;2023-11-21T03:56:58;5.47;;;1.00;;
49722;SDS011;43484;43.608;1.458;2023-11-21T03:59:25;7.43;;;1.00;;
49722;SDS011;43484;43.608;1.458;2023-11-21T04:01:51;5.88;;;1.02;;
49722;SDS011;43484;43.608;1.458;2023-11-21T04:04:18;10.05;;;1.20;;
49722;SDS011;43484;43.608;1.458;2023-11-21T04:06:46;9.13;;;1.30;;
49722;SDS011;43484;43.608;1.458;2023-11-21T04:09:12;15.88;;;1.33;;
49722;SDS011;43484;43.608;1.458;2023-11-21T04:11:39;6.53;;;0.80;;
49722;SDS011;43484;43.608;1.458;2023-11-21T04:14:05;9.43;;;1.10;;
49722;SDS011;43484;43.608;1.458;2023-11-21T04:16:32;11.40;;;1.58;;
49722;SDS011;43484;43.608;1.458;2023-11-21T04:19:00;10.18;;;1.02;;
49722;SDS011;43484;43.608;1.458;2023-11-21T04:21:26;6.43;;;1.23;;
49722;SDS011;43484;43.608;1.458;2023-11-21T04:23:53;19.52;;;1.50;;
49722;SDS011;43484;43.608;1.458;2023-11-21T04:26:19;10.25;;;1.90;;
49722;SDS011;43484;43.608;1.458;2023-11-21T04:28:46;11.90;;;2.15;;
49722;SDS011;43484;43.608;1.458;2023-11-21T04:31:12;13.90;;;1.80;;
49722;SDS011;43484;43.608;1.458;2023-11-21T04:33:39;16.63;;;1.13;;
49722;SDS011;43484;43.608;1.458;2023-11-21T04:36:06;11.90;;;1.40;;
49722;SDS011;43484;43.608;1.458;2023-11-21T04:38:33;11.07;;;2.00;;
49722;SDS011;43484;43.608;1.458;2023-11-21T04:41:00;12.40;;;1.17;;
49722;SDS011;43484;43.608;1.458;2023-11-21T04:43:29;11.20;;;1.55;;
49722;SDS011;43484;43.608;1.458;2023-11-21T04:45:56;11.82;;;1.88;;
49722;SDS011;43484;43.608;1.458;2023-11-21T04:48:22;8.25;;;1.02;;
49722;SDS011;43484;43.608;1.458;2023-11-21T04:50:49;10.38;;;1.15;;
49722;SDS011;43484;43.608;1.458;2023-11-21T04:53:16;12.95;;;1.25;;
49722;SDS011;43484;43.608;1.458;2023-11-21T04:55:43;10.02;;;1.42;;
49722;SDS011;43484;43.608;1.458;2023-11-21T04:58:10;9.55;;;1.73;;
49722;SDS011;43484;43.608;1.458;2023-11-21T05:00:38;8.95;;;0.90;;
49722;SDS011;43484;43.608;1.458;2023-11-21T05:03:05;10.43;;;1.30;;
49722;SDS011;43484;43.608;1.458;2023-11-21T05:05:33;10.50;;;1.48;;
49722;SDS011;43484;43.608;1.458;2023-11-21T05:08:00;16.25;;;1.60;;
49722;SDS011;43484;43.608;1.458;2023-11-21T05:10:28;8.00;;;1.15;;
49722;SDS011;43484;43.608;1.458;2023-11-21T05:12:55;15.77;;;2.40;;
49722;SDS011;43484;43.608;1.458;2023-11-21T05:15:22;13.10;;;1.45;;
49722;SDS011;43484;43.608;1.458;2023-11-21T05:17:49;12.15;;;1.25;;
49722;SDS011;43484;43.608;1.458;2023-11-21T05:20:18;6.47;;;1.15;;
49722;SDS011;43484;43.608;1.458;2023-11-21T05:22:49;4.70;;;0.93;;
49722;SDS011;43484;43.608;1.458;2023-11-21T05:25:16;11.23;;;1.20;;
49722;SDS011;43484;43.608;1.458;2023-11-21T05:27:45;8.55;;;0.95;;
49722;SDS011;43484;43.608;1.458;2023-11-21T05:30:13;8.00;;;1.38;;
49722;SDS011;43484;43.608;1.458;2023-11-21T05:32:40;12.95;;;1.35;;
49722;SDS011;43484;43.608;1.458;2023-11-21T05:35:10;10.52;;;0.80;;
49722;SDS011;43484;43.608;1.458;2023-11-21T05:37:43;9.15;;;0.85;;
49722;SDS011;43484;43.608;1.458;2023-11-21T05:40:10;6.10;;;0.90;;
49722;SDS011;43484;43.608;1.458;2023-11-21T05:42:39;10.63;;;0.90;;
49722;SDS011;43484;43.608;1.458;2023-11-21T05:45:07;6.13;;;1.08;;
49722;SDS011;43484;43.608;1.458;2023-11-21T05:47:42;8.38;;;0.90;;
49722;SDS011;43484;43.608;1.458;2023-11-21T05:50:13;7.90;;;2.03;;
49722;SDS011;43484;43.608;1.458;2023-11-21T05:52:45;7.32;;;0.73;;
49722;SDS011;43484;43.608;1.458;2023-11-21T05:55:13;6.00;;;0.85;;
49722;SDS011;43484;43.608;1.458;2023-11-21T05:57:40;7.95;;;1.20;;
49722;SDS011;43484;43.608;1.458;2023-11-21T06:00:09;10.55;;;1.30;;
49722;SDS011;43484;43.608;1.458;2023-11-21T06:02:38;7.90;;;1.00;;
49722;SDS011;43484;43.608;1.458;2023-11-21T06:05:06;5.18;;;0.95;;
49722;SDS011;43484;43.608;1.458;2023-11-21T06:07:34;11.50;;;1.58;;
49722;SDS011;43484;43.608;1.458;2023-11-21T06:10:02;12.35;;;1.08;;
49722;SDS011;43484;43.608;1.458;2023-11-21T06:12:32;7.25;;;0.80;;
49722;SDS011;43484;43.608;1.458;2023-11-21T06:15:05;5.45;;;0.57;;
49722;SDS011;43484;43.608;1.458;2023-11-21T06:17:35;6.93;;;0.90;;
49722;SDS011;43484;43.608;1.458;2023-11-21T06:20:03;9.27;;;0.90;;
49722;SDS011;43484;43.608;1.458;2023-11-21T06:22:38;6.75;;;1.27;;
49722;SDS011;43484;43.608;1.458;2023-11-21T06:25:06;7.95;;;0.95;;
49722;SDS011;43484;43.608;1.458;2023-11-21T06:27:36;8.63;;;1.25;;
49722;SDS011;43484;43.608;1.458;2023-11-21T06:30:04;6.18;;;1.05;;
49722;SDS011;43484;43.608;1.458;2023-11-21T06:32:33;7.72;;;1.02;;
49722;SDS011;43484;43.608;1.458;2023-11-21T06:35:01;8.93;;;0.80;;
49722;SDS011;43484;43.608;1.458;2023-11-21T06:37:28;6.38;;;1.27;;
49722;SDS011;43484;43.608;1.458;2023-11-21T06:39:55;7.15;;;1.50;;
49722;SDS011;43484;43.608;1.458;2023-11-21T06:42:27;9.48;;;1.05;;
49722;SDS011;43484;43.608;1.458;2023-11-21T06:44:55;10.27;;;1.40;;
49722;SDS011;43484;43.608;1.458;2023-11-21T06:47:23;10.32;;;0.90;;
49722;SDS011;43484;43.608;1.458;2023-11-21T06:49:56;11.05;;;0.77;;
49722;SDS011;43484;43.608;1.458;2023-11-21T06:52:23;7.55;;;0.93;;
49722;SDS011;43484;43.608;1.458;2023-11-21T06:54:49;4.90;;;0.70;;
49722;SDS011;43484;43.608;1.458;2023-11-21T06:57:16;10.32;;;1.20;;
49722;SDS011;43484;43.608;1.458;2023-11-21T06:59:43;16.15;;;1.50;;
49722;SDS011;43484;43.608;1.458;2023-11-21T07:02:10;9.52;;;0.85;;
49722;SDS011;43484;43.608;1.458;2023-11-21T07:04:37;4.82;;;0.65;;
49722;SDS011;43484;43.608;1.458;2023-11-21T07:07:04;9.60;;;0.70;;
49722;SDS011;43484;43.608;1.458;2023-11-21T07:09:30;9.57;;;1.55;;
49722;SDS011;43484;43.608;1.458;2023-11-21T07:11:57;8.30;;;1.80;;
49722;SDS011;43484;43.608;1.458;2023-11-21T07:14:24;9.90;;;1.13;;
49722;SDS011;43484;43.608;1.458;2023-11-21T07:16:50;9.32;;;0.90;;
49722;SDS011;43484;43.608;1.458;2023-11-21T07:19:19;6.57;;;0.88;;
49722;SDS011;43484;43.608;1.458;2023-11-21T07:21:46;3.78;;;0.80;;
49722;SDS011;43484;43.608;1.458;2023-11-21T07:24:13;5.47;;;0.60;;
49722;SDS011;43484;43.608;1.458;2023-11-21T07:26:40;7.75;;;0.75;;
49722;SDS011;43484;43.608;1.458;2023-11-21T07:29:07;8.65;;;1.10;;
49722;SDS011;43484;43.608;1.458;2023-11-21T07:31:35;6.68;;;0.90;;
49722;SDS011;43484;43.608;1.458;2023-11-21T07:34:02;8.20;;;1.00;;
49722;SDS011;43484;43.608;1.458;2023-11-21T07:36:28;2.08;;;0.60;;
49722;SDS011;43484;43.608;1.458;2023-11-21T07:38:55;7.63;;;1.00;;
49722;SDS011;43484;43.608;1.458;2023-11-21T07:41:21;9.45;;;1.20;;
49722;SDS011;43484;43.608;1.458;2023-11-21T07:43:56;5.45;;;1.05;;
49722;SDS011;43484;43.608;1.458;2023-11-21T07:46:23;7.93;;;1.27;;
49722;SDS011;43484;43.608;1.458;2023-11-21T07:48:53;4.25;;;0.70;;
49722;SDS011;43484;43.608;1.458;2023-11-21T07:51:20;3.58;;;0.90;;
49722;SDS011;43484;43.608;1.458;2023-11-21T07:53:46;8.90;;;1.00;;
49722;SDS011;43484;43.608;1.458;2023-11-21T07:56:15;2.92;;;0.93;;
49722;SDS011;43484;43.608;1.458;2023-11-21T07:58:42;6.70;;;0.80;;
49722;SDS011;43484;43.608;1.458;2023-11-21T08:01:11;7.90;;;1.08;;
49722;SDS011;43484;43.608;1.458;2023-11-21T08:03:39;8.90;;;1.13;;
49722;SDS011;43484;43.608;1.458;2023-11-21T08:06:08;5.88;;;1.00;;
49722;SDS011;43484;43.608;1.458;2023-11-21T08:08:35;6.63;;;1.65;;
49722;SDS011;43484;43.608;1.458;2023-11-21T08:11:02;4.13;;;1.00;;
49722;SDS011;43484;43.608;1.458;2023-11-21T08:13:29;10.68;;;0.98;;
49722;SDS011;43484;43.608;1.458;2023-11-21T08:15:59;1.65;;;0.50;;
49722;SDS011;43484;43.608;1.458;2023-11-21T08:18:31;6.30;;;1.08;;
49722;SDS011;43484;43.608;1.458;2023-11-21T08:21:07;17.20;;;2.63;;
49722;SDS011;43484;43.608;1.458;2023-11-21T08:23:38;5.07;;;0.90;;
49722;SDS011;43484;43.608;1.458;2023-11-21T08:26:06;4.20;;;0.70;;
49722;SDS011;43484;43.608;1.458;2023-11-21T08:28:40;8.32;;;1.10;;
49722;SDS011;43484;43.608;1.458;2023-11-21T08:31:12;6.68;;;0.80;;
49722;SDS011;43484;43.608;1.458;2023-11-21T08:33:41;2.60;;;0.75;;
49722;SDS011;43484;43.608;1.458;2023-11-21T08:36:08;5.68;;;0.60;;
49722;SDS011;43484;43.608;1.458;2023-11-21T08:38:37;1.52;;;0.70;;
49722;SDS011;43484;43.608;1.458;2023-11-21T08:41:05;5.07;;;0.88;;
49722;SDS011;43484;43.608;1.458;2023-11-21T08:43:36;7.03;;;0.98;;
49722;SDS011;43484;43.608;1.458;2023-11-21T08:46:06;6.47;;;1.63;;
49722;SDS011;43484;43.608;1.458;2023-11-21T08:48:35;4.10;;;0.80;;
49722;SDS011;43484;43.608;1.458;2023-11-21T08:51:03;6.10;;;0.95;;
49722;SDS011;43484;43.608;1.458;2023-11-21T08:53:30;6.30;;;0.93;;
49722;SDS011;43484;43.608;1.458;2023-11-21T08:55:57;5.30;;;0.80;;
49722;SDS011;43484;43.608;1.458;2023-11-21T08:58:24;9.13;;;2.58;;
49722;SDS011;43484;43.608;1.458;2023-11-21T09:00:50;5.22;;;1.00;;
49722;SDS011;43484;43.608;1.458;2023-11-21T09:03:17;6.85;;;1.45;;
49722;SDS011;43484;43.608;1.458;2023-11-21T09:05:44;5.43;;;1.20;;
49722;SDS011;43484;43.608;1.458;2023-11-21T09:08:11;6.22;;;0.90;;
49722;SDS011;43484;43.608;1.458;2023-11-21T09:10:38;5.25;;;1.27;;
49722;SDS011;43484;43.608;1.458;2023-11-21T09:13:06;10.20;;;1.20;;
49722;SDS011;43484;43.608;1.458;2023-11-21T09:15:36;8.38;;;1.73;;
49722;SDS011;43484;43.608;1.458;2023-11-21T09:18:03;4.18;;;0.70;;
49722;SDS011;43484;43.608;1.458;2023-11-21T09:20:31;4.80;;;1.00;;
49722;SDS011;43484;43.608;1.458;2023-11-21T09:22:58;9.00;;;0.70;;
49722;SDS011;43484;43.608;1.458;2023-11-21T09:25:24;7.85;;;0.90;;
49722;SDS011;43484;43.608;1.458;2023-11-21T09:27:51;3.70;;;0.90;;
49722;SDS011;43484;43.608;1.458;2023-11-21T09:30:18;7.00;;;0.90;;
49722;SDS011;43484;43.608;1.458;2023-11-21T09:32:44;7.30;;;0.93;;
49722;SDS011;43484;43.608;1.458;2023-11-21T09:35:12;5.50;;;1.08;;
49722;SDS011;43484;43.608;1.458;2023-11-21T09:37:41;6.60;;;1.33;;
49722;SDS011;43484;43.608;1.458;2023-11-21T09:40:10;10.07;;;1.58;;
49722;SDS011;43484;43.608;1.458;2023-11-21T09:42:44;3.05;;;0.80;;
49722;SDS011;43484;43.608;1.458;2023-11-21T09:47:52;5.78;;;0.75;;
49722;SDS011;43484;43.608;1.458;2023-11-21T09:50:22;11.52;;;1.33;;
49722;SDS011;43484;43.608;1.458;2023-11-21T09:55:27;9.77;;;0.80;;
49722;SDS011;43484;43.608;1.458;2023-11-21T09:58:02;7.53;;;1.02;;
49722;SDS011;43484;43.608;1.458;2023-11-21T10:00:32;6.90;;;0.90;;
49722;SDS011;43484;43.608;1.458;2023-11-21T10:02:59;3.83;;;1.15;;
49722;SDS011;43484;43.608;1.458;2023-11-21T10:05:26;4.45;;;0.50;;
49722;SDS011;43484;43.608;1.458;2023-11-21T10:07:55;5.32;;;0.75;;
49722;SDS011;43484;43.608;1.458;2023-11-21T10:10:24;8.32;;;0.93;;
49722;SDS011;43484;43.608;1.458;2023-11-21T10:12:53;14.63;;;1.20;;
49722;SDS011;43484;43.608;1.458;2023-11-21T10:15:23;4.78;;;0.50;;
49722;SDS011;43484;43.608;1.458;2023-11-21T10:17:53;4.32;;;1.30;;
49722;SDS011;43484;43.608;1.458;2023-11-21T10:20:22;4.13;;;0.57;;
49722;SDS011;43484;43.608;1.458;2023-11-21T10:22:51;5.90;;;1.00;;
49722;SDS011;43484;43.608;1.458;2023-11-21T10:25:18;5.03;;;0.80;;
49722;SDS011;43484;43.608;1.458;2023-11-21T10:27:47;3.58;;;0.77;;
49722;SDS011;43484;43.608;1.458;2023-11-21T10:30:16;10.07;;;1.63;;
49722;SDS011;43484;43.608;1.458;2023-11-21T10:32:44;1.75;;;0.52;;
49722;SDS011;43484;43.608;1.458;2023-11-21T10:35:11;3.30;;;0.70;;
49722;SDS011;43484;43.608;1.458;2023-11-21T10:37:41;4.50;;;1.10;;
49722;SDS011;43484;43.608;1.458;2023-11-21T10:40:10;6.13;;;1.10;;
49722;SDS011;43484;43.608;1.458;2023-11-21T10:42:40;2.17;;;0.38;;
49722;SDS011;43484;43.608;1.458;2023-11-21T10:45:08;3.72;;;0.68;;
49722;SDS011;43484;43.608;1.458;2023-11-21T10:47:40;2.75;;;0.40;;
49722;SDS011;43484;43.608;1.458;2023-11-21T10:50:08;1.17;;;0.35;;
49722;SDS011;43484;43.608;1.458;2023-11-21T10:52:39;1.67;;;0.52;;
49722;SDS011;43484;43.608;1.458;2023-11-21T10:55:18;5.45;;;0.90;;
49722;SDS011;43484;43.608;1.458;2023-11-21T10:57:48;2.25;;;0.80;;
49722;SDS011;43484;43.608;1.458;2023-11-21T11:00:17;3.17;;;0.95;;
49722;SDS011;43484;43.608;1.458;2023-11-21T11:02:50;5.35;;;0.90;;
49722;SDS011;43484;43.608;1.458;2023-11-21T11:05:19;4.47;;;1.00;;
49722;SDS011;43484;43.608;1.458;2023-11-21T11:07:48;1.75;;;0.88;;
49722;SDS011;43484;43.608;1.458;2023-11-21T11:10:21;2.58;;;0.77;;
49722;SDS011;43484;43.608;1.458;2023-11-21T11:12:49;2.58;;;0.95;;
49722;SDS011;43484;43.608;1.458;2023-11-21T11:15:19;1.92;;;0.93;;
49722;SDS011;43484;43.608;1.458;2023-11-21T11:17:46;1.55;;;0.75;;
49722;SDS011;43484;43.608;1.458;2023-11-21T11:20:15;6.13;;;1.50;;
49722;SDS011;43484;43.608;1.458;2023-11-21T11:22:48;6.32;;;0.85;;
49722;SDS011;43484;43.608;1.458;2023-11-21T11:25:35;3.03;;;1.05;;
49722;SDS011;43484;43.608;1.458;2023-11-21T11:28:15;4.78;;;1.55;;
49722;SDS011;43484;43.608;1.458;2023-11-21T11:33:45;2.45;;;1.00;;
49722;SDS011;43484;43.608;1.458;2023-11-21T11:39:29;2.47;;;1.10;;
49722;SDS011;43484;43.608;1.458;2023-11-21T11:42:08;5.18;;;1.70;;
49722;SDS011;43484;43.608;1.458;2023-11-21T11:49:56;4.28;;;1.63;;
49722;SDS011;43484;43.608;1.458;2023-11-21T11:52:36;6.72;;;1.80;;
49722;SDS011;43484;43.608;1.458;2023-11-21T11:55:15;3.35;;;1.30;;
49722;SDS011;43484;43.608;1.458;2023-11-21T11:57:55;1.20;;;0.93;;
49722;SDS011;43484;43.608;1.458;2023-11-21T12:03:01;3.83;;;1.08;;
49722;SDS011;43484;43.608;1.458;2023-11-21T12:05:32;5.10;;;1.20;;
49722;SDS011;43484;43.608;1.458;2023-11-21T12:08:06;4.25;;;0.90;;
49722;SDS011;43484;43.608;1.458;2023-11-21T12:10:35;5.55;;;1.10;;
49722;SDS011;43484;43.608;1.458;2023-11-21T12:13:07;1.13;;;0.60;;
49722;SDS011;43484;43.608;1.458;2023-11-21T12:15:36;7.15;;;1.17;;
49722;SDS011;43484;43.608;1.458;2023-11-21T12:18:05;3.33;;;1.30;;
49722;SDS011;43484;43.608;1.458;2023-11-21T12:20:32;2.67;;;1.13;;
49722;SDS011;43484;43.608;1.458;2023-11-21T12:23:05;3.22;;;1.05;;
49722;SDS011;43484;43.608;1.458;2023-11-21T12:25:32;4.82;;;1.10;;
49722;SDS011;43484;43.608;1.458;2023-11-21T12:27:59;2.47;;;1.23;;
49722;SDS011;43484;43.608;1.458;2023-11-21T12:30:28;3.60;;;1.30;;
49722;SDS011;43484;43.608;1.458;2023-11-21T12:32:58;6.75;;;2.13;;
49722;SDS011;43484;43.608;1.458;2023-11-21T12:35:30;3.78;;;1.38;;
49722;SDS011;43484;43.608;1.458;2023-11-21T12:38:00;2.70;;;0.70;;
49722;SDS011;43484;43.608;1.458;2023-11-21T12:40:31;1.60;;;0.60;;
49722;SDS011;43484;43.608;1.458;2023-11-21T12:42:58;1.95;;;0.80;;
49722;SDS011;43484;43.608;1.458;2023-11-21T12:45:28;4.38;;;1.23;;
49722;SDS011;43484;43.608;1.458;2023-11-21T12:48:02;5.30;;;0.80;;
49722;SDS011;43484;43.608;1.458;2023-11-21T12:50:35;1.35;;;0.60;;
49722;SDS011;43484;43.608;1.458;2023-11-21T12:55:33;6.00;;;1.02;;
49722;SDS011;43484;43.608;1.458;2023-11-21T12:58:04;4.88;;;0.98;;
49722;SDS011;43484;43.608;1.458;2023-11-21T13:03:10;3.88;;;0.85;;
49722;SDS011;43484;43.608;1.458;2023-11-21T13:05:40;2.53;;;0.82;;
49722;SDS011;43484;43.608;1.458;2023-11-21T13:08:14;4.25;;;1.27;;
49722;SDS011;43484;43.608;1.458;2023-11-21T13:10:46;3.05;;;1.33;;
49722;SDS011;43484;43.608;1.458;2023-11-21T13:13:16;4.82;;;1.45;;
49722;SDS011;43484;43.608;1.458;2023-11-21T13:15:56;7.72;;;1.20;;
49722;SDS011;43484;43.608;1.458;2023-11-21T13:18:27;7.50;;;2.00;;
49722;SDS011;43484;43.608;1.458;2023-11-21T13:20:55;7.20;;;2.00;;
49722;SDS011;43484;43.608;1.458;2023-11-21T13:23:24;5.57;;;1.25;;
49722;SDS011;43484;43.608;1.458;2023-11-21T13:25:52;2.15;;;1.10;;
49722;SDS011;43484;43.608;1.458;2023-11-21T13:28:33;3.50;;;0.90;;
49722;SDS011;43484;43.608;1.458;2023-11-21T13:31:01;2.65;;;1.08;;
49722;SDS011;43484;43.608;1.458;2023-11-21T13:33:36;2.40;;;1.02;;
49722;SDS011;43484;43.608;1.458;2023-11-21T13:36:09;4.93;;;1.17;;
49722;SDS011;43484;43.608;1.458;2023-11-21T13:38:37;3.88;;;1.20;;
49722;SDS011;43484;43.608;1.458;2023-11-21T13:41:09;8.57;;;1.27;;
49722;SDS011;43484;43.608;1.458;2023-11-21T13:43:36;3.53;;;0.90;;
49722;SDS011;43484;43.608;1.458;2023-11-21T13:46:04;1.42;;;0.88;;
49722;SDS011;43484;43.608;1.458;2023-11-21T13:48:41;7.80;;;1.27;;
49722;SDS011;43484;43.608;1.458;2023-11-21T13:51:09;4.00;;;1.10;;
49722;SDS011;43484;43.608;1.458;2023-11-21T13:53:45;1.75;;;0.93;;
49722;SDS011;43484;43.608;1.458;2023-11-21T13:56:14;3.55;;;0.90;;
49722;SDS011;43484;43.608;1.458;2023-11-21T13:58:46;2.65;;;1.20;;
49722;SDS011;43484;43.608;1.458;2023-11-21T14:01:23;17.60;;;1.52;;
49722;SDS011;43484;43.608;1.458;2023-11-21T14:03:53;8.33;;;1.43;;
49722;SDS011;43484;43.608;1.458;2023-11-21T14:06:24;4.72;;;1.40;;
49722;SDS011;43484;43.608;1.458;2023-11-21T14:08:58;6.00;;;1.33;;
49722;SDS011;43484;43.608;1.458;2023-11-21T14:11:27;4.80;;;1.67;;
49722;SDS011;43484;43.608;1.458;2023-11-21T14:14:01;5.82;;;1.92;;
49722;SDS011;43484;43.608;1.458;2023-11-21T14:16:28;4.63;;;1.38;;
49722;SDS011;43484;43.608;1.458;2023-11-21T14:18:55;5.60;;;1.23;;
49722;SDS011;43484;43.608;1.458;2023-11-21T14:21:45;16.60;;;2.20;;
49722;SDS011;43484;43.608;1.458;2023-11-21T14:24:12;5.93;;;1.67;;
49722;SDS011;43484;43.608;1.458;2023-11-21T14:26:40;3.33;;;1.55;;
49722;SDS011;43484;43.608;1.458;2023-11-21T14:29:08;9.93;;;1.90;;
49722;SDS011;43484;43.608;1.458;2023-11-21T14:31:35;2.35;;;1.13;;
49722;SDS011;43484;43.608;1.458;2023-11-21T14:34:02;9.60;;;1.17;;
49722;SDS011;43484;43.608;1.458;2023-11-21T14:36:29;3.53;;;1.15;;
49722;SDS011;43484;43.608;1.458;2023-11-21T14:38:55;6.32;;;1.13;;
49722;SDS011;43484;43.608;1.458;2023-11-21T14:41:22;6.95;;;2.05;;
49722;SDS011;43484;43.608;1.458;2023-11-21T14:43:48;4.05;;;1.27;;
49722;SDS011;43484;43.608;1.458;2023-11-21T14:46:16;6.13;;;1.92;;
49722;SDS011;43484;43.608;1.458;2023-11-21T14:48:45;6.05;;;1.42;;
49722;SDS011;43484;43.608;1.458;2023-11-21T14:51:25;6.72;;;1.90;;
49722;SDS011;43484;43.608;1.458;2023-11-21T14:53:57;5.30;;;1.80;;
49722;SDS011;43484;43.608;1.458;2023-11-21T14:56:32;4.07;;;1.35;;
49722;SDS011;43484;43.608;1.458;2023-11-21T14:59:01;7.30;;;1.15;;
49722;SDS011;43484;43.608;1.458;2023-11-21T15:01:43;6.82;;;1.40;;
49722;SDS011;43484;43.608;1.458;2023-11-21T15:04:21;5.75;;;1.80;;
49722;SDS011;43484;43.608;1.458;2023-11-21T15:07:03;4.78;;;1.20;;
49722;SDS011;43484;43.608;1.458;2023-11-21T15:09:31;3.03;;;1.10;;
49722;SDS011;43484;43.608;1.458;2023-11-21T15:12:02;4.38;;;1.00;;
49722;SDS011;43484;43.608;1.458;2023-11-21T15:14:46;4.45;;;1.30;;
49722;SDS011;43484;43.608;1.458;2023-11-21T15:17:16;3.17;;;1.05;;
49722;SDS011;43484;43.608;1.458;2023-11-21T15:19:53;25.02;;;2.17;;